Time;durP1;ratioP1;P1;durP2;ratioP2;P2;SDS_P1;SDS_P2;PMS_P1;PMS_P2;Temp;Humidity;BMP_temperature;BMP_pressure;BME280_temperature;BME280_humidity;BME280_pressure;Samples;Min_cycle;Max_cycle;Signal;HPM_P1;HPM_P2
2021/09/18 00:00:48;;;;;;;37.40;24.15;;;;;;;15.31;83.66;101700.13;5006389;28;20037;-78
2021/09/18 00:03:14;;;;;;;34.13;25.80;;;;;;;15.38;83.07;101700.69;4991403;28;20034;-78
2021/09/18 00:05:39;;;;;;;35.28;25.13;;;;;;;15.40;83.52;101690.06;4991742;28;20097;-77
2021/09/18 00:08:05;;;;;;;36.00;24.55;;;;;;;15.39;83.37;101689.22;4991828;28;20100;-78
2021/09/18 00:10:30;;;;;;;37.28;24.05;;;;;;;15.53;83.07;101691.19;4990765;28;20041;-78
2021/09/18 00:12:55;;;;;;;31.45;23.77;;;;;;;15.29;84.33;101698.50;5022492;28;20041;-78
2021/09/18 00:15:21;;;;;;;33.50;25.48;;;;;;;15.47;82.85;101692.34;5018386;28;20033;-78
2021/09/18 00:17:46;;;;;;;43.65;25.63;;;;;;;15.38;84.17;101692.78;4991097;28;20327;-78
2021/09/18 00:20:12;;;;;;;36.50;25.30;;;;;;;15.45;83.00;101694.19;5025241;28;20116;-78
2021/09/18 00:22:37;;;;;;;35.22;26.25;;;;;;;15.45;82.90;101693.34;4983846;28;20056;-78
2021/09/18 00:25:03;;;;;;;38.30;27.13;;;;;;;15.23;84.15;101690.88;5009515;28;20041;-77
2021/09/18 00:27:28;;;;;;;38.92;27.20;;;;;;;15.22;84.21;101695.28;5016885;28;20038;-78
2021/09/18 00:29:54;;;;;;;40.00;28.00;;;;;;;15.33;83.60;101690.38;4994538;28;20033;-78
2021/09/18 00:32:19;;;;;;;39.10;27.38;;;;;;;15.39;83.84;101693.63;5018220;28;20046;-78
2021/09/18 00:34:44;;;;;;;38.40;28.20;;;;;;;15.25;84.02;101689.88;5007369;28;20042;-77
2021/09/18 00:37:10;;;;;;;42.15;29.63;;;;;;;15.14;84.72;101686.88;5007846;28;20044;-78
2021/09/18 00:39:35;;;;;;;41.47;29.40;;;;;;;15.07;84.78;101694.22;5025647;28;20034;-78
2021/09/18 00:42:01;;;;;;;42.95;28.83;;;;;;;15.18;84.43;101687.59;5007530;28;20218;-78
2021/09/18 00:44:27;;;;;;;41.40;28.38;;;;;;;15.24;83.81;101693.41;4992509;28;20045;-78
2021/09/18 00:46:52;;;;;;;41.42;27.67;;;;;;;15.15;84.53;101686.81;4993325;28;20033;-78
2021/09/18 00:49:18;;;;;;;40.45;29.35;;;;;;;15.13;84.26;101696.59;5010189;28;20082;-78
2021/09/18 00:51:43;;;;;;;45.70;31.10;;;;;;;15.10;84.78;101688.81;4993257;28;20036;-77
2021/09/18 00:54:09;;;;;;;46.75;31.05;;;;;;;15.10;84.99;101686.16;5007066;28;20034;-78
2021/09/18 00:56:35;;;;;;;43.78;29.65;;;;;;;15.02;85.10;101693.56;4990714;28;20093;-78
2021/09/18 00:59:00;;;;;;;42.25;30.63;;;;;;;14.95;85.71;101689.50;4992745;28;20076;-78
2021/09/18 01:01:26;;;;;;;45.80;30.25;;;;;;;15.00;85.24;101691.94;5029561;28;20045;-78
2021/09/18 01:03:51;;;;;;;46.55;32.08;;;;;;;14.89;86.09;101689.78;4997049;28;20038;-78
2021/09/18 01:06:17;;;;;;;51.33;33.15;;;;;;;14.93;86.06;101696.63;5046542;28;20045;-78
2021/09/18 01:08:43;;;;;;;48.70;33.47;;;;;;;14.90;86.27;101691.50;5014579;28;20048;-77
2021/09/18 01:11:08;;;;;;;49.53;32.35;;;;;;;14.90;86.28;101684.44;5000332;28;20034;-77
2021/09/18 01:13:34;;;;;;;48.88;32.97;;;;;;;14.96;86.37;101689.41;5021108;28;20316;-78
2021/09/18 01:16:00;;;;;;;52.50;34.20;;;;;;;14.96;85.86;101691.22;5009943;28;20232;-78
2021/09/18 01:18:25;;;;;;;49.63;33.90;;;;;;;14.93;86.22;101692.19;4988172;28;20037;-77
2021/09/18 01:20:51;;;;;;;53.20;34.90;;;;;;;14.96;86.30;101688.56;5011313;28;20107;-78
2021/09/18 01:23:20;;;;;;;53.22;33.13;;;;;;;15.00;86.22;101689.28;5018473;28;20075;-78
2021/09/18 01:25:46;;;;;;;53.58;34.60;;;;;;;14.94;86.64;101687.78;5010653;28;20030;-78
2021/09/18 01:28:11;;;;;;;55.13;35.63;;;;;;;14.94;86.30;101688.63;4986097;28;20025;-78
2021/09/18 01:30:37;;;;;;;55.17;35.25;;;;;;;14.88;86.84;101693.31;5010349;28;20333;-78
2021/09/18 01:33:03;;;;;;;53.20;36.15;;;;;;;14.86;86.80;101688.16;5023683;28;20049;-77
2021/09/18 01:35:28;;;;;;;55.83;36.63;;;;;;;14.86;87.44;101687.28;4996845;28;20080;-78
2021/09/18 01:37:53;;;;;;;52.15;37.17;;;;;;;14.76;87.67;101679.78;5008170;28;20038;-78
2021/09/18 01:40:29;;;;;;;59.50;36.45;;;;;;;14.80;87.34;101679.66;4985268;28;20029;-78
2021/09/18 01:42:55;;;;;;;56.78;36.88;;;;;;;14.72;87.91;101680.84;4990736;28;20038;-78
2021/09/18 01:45:20;;;;;;;65.53;37.75;;;;;;;14.69;87.88;101673.06;4993715;28;20022;-78
2021/09/18 01:47:56;;;;;;;63.30;37.83;;;;;;;14.75;87.58;101679.84;4978395;28;20066;-77
2021/09/18 01:50:25;;;;;;;65.45;39.90;;;;;;;14.50;88.91;101673.00;4995008;28;20042;-78
2021/09/18 01:52:52;;;;;;;66.18;38.05;;;;;;;14.61;88.12;101674.31;5011558;28;20221;-78
2021/09/18 01:55:18;;;;;;;59.70;37.55;;;;;;;14.57;88.32;101666.56;4994210;28;20030;-77
2021/09/18 01:57:48;;;;;;;59.92;36.53;;;;;;;14.58;87.56;101665.63;4992318;28;20029;-78
2021/09/18 02:00:14;;;;;;;60.55;36.83;;;;;;;14.63;87.61;101675.13;4993800;28;20033;-78
2021/09/18 02:02:40;;;;;;;57.15;35.97;;;;;;;14.83;86.79;101668.97;4993565;28;20053;-78
2021/09/18 02:05:06;;;;;;;52.30;34.50;;;;;;;14.64;87.11;101676.84;5013647;28;20033;-78
2021/09/18 02:07:31;;;;;;;57.13;34.80;;;;;;;14.66;87.11;101674.97;5011136;28;20097;-78
2021/09/18 02:09:56;;;;;;;55.45;35.10;;;;;;;14.56;86.83;101674.50;5046176;28;20033;-78
2021/09/18 02:12:22;;;;;;;55.47;34.75;;;;;;;14.48;87.85;101669.59;5016261;28;20022;-78
2021/09/18 02:14:47;;;;;;;57.65;36.58;;;;;;;14.49;87.73;101671.28;4990331;28;20042;-78
2021/09/18 02:17:13;;;;;;;53.72;35.30;;;;;;;14.46;87.55;101668.81;5003972;28;20021;-78
2021/09/18 02:19:38;;;;;;;52.63;34.83;;;;;;;14.45;87.94;101666.22;5007444;28;20229;-78
2021/09/18 02:22:04;;;;;;;53.90;34.30;;;;;;;14.52;87.33;101671.16;4996470;28;20021;-77
2021/09/18 02:24:30;;;;;;;53.53;34.05;;;;;;;14.59;87.16;101677.06;4990026;28;20316;-78
2021/09/18 02:26:55;;;;;;;57.47;34.70;;;;;;;14.50;86.52;101675.63;4993234;28;20057;-78
2021/09/18 02:29:20;;;;;;;56.83;34.72;;;;;;;14.39;87.74;101675.25;5008667;28;20205;-78
2021/09/18 02:31:46;;;;;;;57.03;35.67;;;;;;;14.72;87.12;101664.19;5009077;28;20042;-78
2021/09/18 02:34:11;;;;;;;59.20;35.15;;;;;;;14.75;86.36;101664.91;5009525;28;20061;-78
2021/09/18 02:36:37;;;;;;;59.35;37.42;;;;;;;14.44;87.85;101670.63;4988649;28;20049;-77
2021/09/18 02:39:02;;;;;;;61.00;35.42;;;;;;;14.40;88.07;101661.13;5010158;28;20033;-78
2021/09/18 02:41:28;;;;;;;58.10;34.22;;;;;;;14.37;88.15;101664.78;5009232;28;20045;-78
2021/09/18 02:43:53;;;;;;;54.70;34.35;;;;;;;14.47;88.04;101661.75;4995405;28;20035;-77
2021/09/18 02:46:19;;;;;;;61.72;36.53;;;;;;;14.36;88.46;101651.66;5010004;28;20194;-77
2021/09/18 02:48:44;;;;;;;62.17;35.78;;;;;;;14.28;88.57;101652.00;5025519;28;20072;-76
2021/09/18 02:51:09;;;;;;;66.57;39.38;;;;;;;14.32;88.60;101647.47;5025655;28;20041;-76
2021/09/18 02:53:35;;;;;;;77.68;41.88;;;;;;;14.27;89.25;101639.75;4992125;28;20037;-76
2021/09/18 02:56:02;;;;;;;72.07;39.03;;;;;;;14.22;89.37;101644.34;5005348;28;20041;-77
2021/09/18 02:58:27;;;;;;;76.28;41.00;;;;;;;14.24;89.14;101646.91;4992517;28;20038;-76
2021/09/18 03:00:53;;;;;;;73.85;40.67;;;;;;;14.23;88.99;101642.59;5010766;28;20048;-76
2021/09/18 03:03:18;;;;;;;69.35;40.95;;;;;;;14.18;88.96;101640.13;4991043;28;20038;-76
2021/09/18 03:05:43;;;;;;;67.10;40.70;;;;;;;14.36;88.16;101643.75;4986512;28;20165;-76
2021/09/18 03:08:09;;;;;;;69.13;39.17;;;;;;;14.27;88.33;101647.66;5025839;28;20036;-76
2021/09/18 03:10:34;;;;;;;69.28;39.55;;;;;;;14.15;88.96;101648.16;4978950;28;20233;-76
2021/09/18 03:13:00;;;;;;;72.57;41.42;;;;;;;14.31;88.41;101649.22;4991981;28;20359;-76
2021/09/18 03:15:25;;;;;;;72.53;42.45;;;;;;;14.42;87.90;101650.53;4990790;28;20033;-76
2021/09/18 03:17:50;;;;;;;71.50;43.22;;;;;;;14.37;87.87;101651.59;4992095;28;20040;-76
2021/09/18 03:20:16;;;;;;;69.78;42.60;;;;;;;14.35;87.96;101647.31;4999031;28;20402;-76
2021/09/18 03:22:41;;;;;;;62.03;38.53;;;;;;;14.60;86.78;101639.22;5007630;28;20068;-76
2021/09/18 03:25:07;;;;;;;75.35;43.00;;;;;;;14.51;87.34;101650.13;4998751;28;20356;-76
2021/09/18 03:27:33;;;;;;;72.45;43.15;;;;;;;14.21;88.67;101656.69;4990882;28;20044;-76
2021/09/18 03:29:59;;;;;;;79.53;43.15;;;;;;;14.17;88.37;101644.56;5026112;28;20100;-76
2021/09/18 03:32:24;;;;;;;77.30;42.97;;;;;;;14.20;88.38;101647.03;5026099;28;20045;-76
2021/09/18 03:34:49;;;;;;;73.13;43.80;;;;;;;14.13;88.63;101642.13;4999787;28;20503;-76
2021/09/18 03:37:15;;;;;;;77.90;42.50;;;;;;;14.08;89.25;101644.09;4997564;28;20029;-77
2021/09/18 03:39:41;;;;;;;85.00;45.08;;;;;;;14.11;89.16;101647.44;5012040;28;20040;-77
2021/09/18 03:42:06;;;;;;;76.75;42.65;;;;;;;13.99;89.21;101646.19;5027241;28;20048;-76
2021/09/18 03:44:32;;;;;;;75.47;42.78;;;;;;;13.94;89.56;101645.53;5014772;28;20043;-76
2021/09/18 03:46:57;;;;;;;84.05;45.40;;;;;;;13.88;89.93;101651.06;4980656;28;20033;-76
2021/09/18 03:49:22;;;;;;;83.15;45.35;;;;;;;13.86;89.98;101647.66;5007226;28;20022;-76
2021/09/18 03:51:48;;;;;;;85.38;46.22;;;;;;;13.98;89.67;101651.53;5027122;28;20090;-77
2021/09/18 03:54:14;;;;;;;86.28;47.65;;;;;;;13.93;89.50;101656.13;5026741;28;20041;-76
2021/09/18 03:56:40;;;;;;;78.93;46.88;;;;;;;13.95;89.34;101659.53;4993282;28;20097;-76
2021/09/18 03:59:05;;;;;;;82.40;45.33;;;;;;;13.96;89.43;101656.00;5007463;28;20057;-76
2021/09/18 04:01:31;;;;;;;88.50;46.00;;;;;;;13.87;89.98;101651.97;5022637;28;20230;-77
2021/09/18 04:03:56;;;;;;;90.57;46.45;;;;;;;13.99;89.60;101662.00;5010626;28;20104;-76
2021/09/18 04:06:21;;;;;;;90.15;46.60;;;;;;;14.02;89.35;101661.00;5005568;28;20018;-76
2021/09/18 04:08:47;;;;;;;90.35;45.70;;;;;;;14.18;88.66;101669.13;5024222;28;20138;-76
2021/09/18 04:11:12;;;;;;;84.32;46.30;;;;;;;14.24;88.80;101670.63;5003262;28;20045;-76
2021/09/18 04:13:38;;;;;;;91.15;47.40;;;;;;;14.05;89.98;101681.09;5007044;28;20034;-76
2021/09/18 04:16:03;;;;;;;91.72;46.55;;;;;;;14.02;89.59;101666.28;5022668;28;20022;-76
2021/09/18 04:18:29;;;;;;;86.00;46.65;;;;;;;14.03;89.85;101670.63;5025334;28;20048;-76
2021/09/18 04:20:54;;;;;;;87.40;45.75;;;;;;;14.11;89.68;101672.94;4990418;28;20018;-76
2021/09/18 04:23:19;;;;;;;78.35;44.60;;;;;;;14.13;88.94;101671.09;5006865;28;20115;-76
2021/09/18 04:25:45;;;;;;;85.15;44.17;;;;;;;14.06;89.02;101667.00;5007710;28;20033;-77
2021/09/18 04:28:10;;;;;;;71.13;40.40;;;;;;;14.06;89.02;101670.50;4986988;28;20026;-76
2021/09/18 04:30:36;;;;;;;74.22;40.90;;;;;;;14.01;89.08;101669.84;4991554;28;20025;-75
2021/09/18 04:33:01;;;;;;;72.47;41.47;;;;;;;14.01;89.27;101669.84;4989986;28;20042;-76
2021/09/18 04:35:26;;;;;;;80.75;44.13;;;;;;;13.92;89.50;101663.16;5007545;28;20056;-76
2021/09/18 04:37:52;;;;;;;87.00;44.85;;;;;;;13.97;89.74;101669.13;5006505;28;20038;-76
2021/09/18 04:40:18;;;;;;;78.18;45.03;;;;;;;13.96;89.61;101672.66;5016990;28;20034;-76
2021/09/18 04:42:43;;;;;;;80.75;43.95;;;;;;;14.00;89.49;101668.13;4991834;28;20038;-76
2021/09/18 04:45:09;;;;;;;92.57;46.30;;;;;;;14.13;89.34;101676.34;4980136;28;20037;-76
2021/09/18 04:47:34;;;;;;;77.90;44.63;;;;;;;14.16;88.57;101677.09;5009331;28;20050;-76
2021/09/18 04:50:00;;;;;;;91.70;46.25;;;;;;;14.00;89.22;101678.66;5026435;28;20398;-76
2021/09/18 04:52:25;;;;;;;92.70;47.88;;;;;;;13.94;90.02;101685.03;5008978;28;20387;-76
2021/09/18 04:54:53;;;;;;;88.22;46.03;;;;;;;13.96;89.21;101683.19;5012607;28;20064;-76
2021/09/18 04:57:19;;;;;;;93.78;47.15;;;;;;;13.86;89.50;101689.78;5009889;28;20395;-76
2021/09/18 04:59:44;;;;;;;93.15;47.42;;;;;;;13.81;90.39;101687.31;5024241;28;20201;-76
2021/09/18 05:02:10;;;;;;;105.50;52.90;;;;;;;13.91;90.79;101687.78;4989567;28;20037;-76
2021/09/18 05:04:35;;;;;;;100.63;51.33;;;;;;;13.87;90.64;101680.94;5023652;28;20022;-76
2021/09/18 05:07:00;;;;;;;100.82;52.33;;;;;;;14.10;89.58;101681.75;5016757;28;20041;-76
2021/09/18 05:09:26;;;;;;;106.57;53.65;;;;;;;14.01;90.89;101681.22;5025746;28;20069;-76
2021/09/18 05:11:51;;;;;;;110.25;52.83;;;;;;;14.04;90.30;101689.91;4999317;28;20030;-76
2021/09/18 05:14:17;;;;;;;101.72;50.72;;;;;;;14.12;89.82;101687.84;5008938;28;20240;-76
2021/09/18 05:16:42;;;;;;;104.15;53.58;;;;;;;14.17;90.21;101685.84;5012428;28;20048;-76
2021/09/18 05:19:08;;;;;;;103.88;53.20;;;;;;;14.18;90.18;101692.81;5030829;28;20342;-76
2021/09/18 05:21:33;;;;;;;106.38;53.97;;;;;;;14.25;90.25;101689.00;4990220;28;20026;-76
2021/09/18 05:23:59;;;;;;;104.65;55.75;;;;;;;14.23;89.87;101697.91;5002073;28;20031;-76
2021/09/18 05:26:24;;;;;;;107.72;53.00;;;;;;;14.30;89.88;101705.50;5021066;28;20216;-76
2021/09/18 05:28:51;;;;;;;111.32;54.50;;;;;;;14.26;89.95;101706.53;5026098;28;20433;-76
2021/09/18 05:31:17;;;;;;;107.22;53.22;;;;;;;14.24;90.15;101711.00;4993459;28;20029;-76
2021/09/18 05:33:42;;;;;;;100.28;52.63;;;;;;;14.41;89.61;101710.31;5026015;28;20351;-76
2021/09/18 05:36:08;;;;;;;100.97;53.05;;;;;;;14.44;89.08;101704.88;4987451;28;20046;-76
2021/09/18 05:38:33;;;;;;;102.07;54.78;;;;;;;14.50;89.21;101711.69;5006764;28;20327;-76
2021/09/18 05:40:59;;;;;;;102.80;53.22;;;;;;;14.64;88.30;101709.31;5006576;28;20026;-76
2021/09/18 05:43:24;;;;;;;99.43;53.00;;;;;;;14.70;88.10;101708.22;5023062;28;20099;-76
2021/09/18 05:45:49;;;;;;;104.25;53.50;;;;;;;14.64;88.34;101709.31;4999777;28;20038;-76
2021/09/18 05:48:16;;;;;;;98.53;53.10;;;;;;;14.68;88.23;101716.19;4996294;28;20233;-75
2021/09/18 05:50:41;;;;;;;98.60;52.13;;;;;;;14.69;88.06;101714.41;5006782;28;20034;-76
2021/09/18 05:53:08;;;;;;;82.43;46.20;;;;;;;14.74;88.22;101718.53;5005624;28;20101;-76
2021/09/18 05:55:34;;;;;;;94.65;52.67;;;;;;;14.76;87.88;101716.69;5026303;28;20048;-76
2021/09/18 05:57:59;;;;;;;91.88;48.83;;;;;;;14.70;88.11;101716.13;5004656;28;20045;-76
2021/09/18 06:00:25;;;;;;;93.60;50.22;;;;;;;14.74;88.14;101718.53;5024688;28;20097;-76
2021/09/18 06:02:50;;;;;;;96.03;49.25;;;;;;;14.78;87.96;101720.09;5009743;28;20054;-76
2021/09/18 06:05:16;;;;;;;87.78;48.97;;;;;;;14.87;87.76;101716.22;5003150;28;20198;-76
2021/09/18 06:07:41;;;;;;;88.28;47.83;;;;;;;14.85;88.00;101719.84;4998364;28;20068;-77
2021/09/18 06:10:07;;;;;;;88.80;48.75;;;;;;;14.83;88.10;101727.84;5006562;28;20343;-76
2021/09/18 06:12:32;;;;;;;89.25;49.17;;;;;;;14.96;87.51;101730.78;5014546;28;20053;-76
2021/09/18 06:14:58;;;;;;;83.75;48.15;;;;;;;15.16;87.09;101736.00;5014388;28;20022;-76
2021/09/18 06:17:23;;;;;;;87.35;48.95;;;;;;;14.97;87.84;101728.06;5004222;28;20026;-77
2021/09/18 06:19:49;;;;;;;81.15;47.03;;;;;;;15.02;87.01;101732.28;5008333;28;20336;-78
2021/09/18 06:22:14;;;;;;;82.78;47.63;;;;;;;15.01;87.64;101731.44;5001458;28;20030;-79
2021/09/18 06:24:40;;;;;;;83.43;45.97;;;;;;;15.11;86.79;101737.97;4989016;28;20026;-78
2021/09/18 06:27:05;;;;;;;77.40;45.72;;;;;;;15.24;86.18;101740.91;5009200;28;20044;-78
2021/09/18 06:29:31;;;;;;;85.38;46.13;;;;;;;15.31;86.72;101741.50;5008757;28;20033;-78
2021/09/18 06:31:56;;;;;;;77.55;44.53;;;;;;;15.51;85.74;101736.13;5002684;28;20233;-78
2021/09/18 06:34:22;;;;;;;70.55;42.42;;;;;;;15.58;84.63;101738.50;4996730;28;20109;-78
2021/09/18 06:36:48;;;;;;;71.65;42.53;;;;;;;15.74;84.13;101732.44;5023345;28;20061;-78
2021/09/18 06:39:14;;;;;;;69.45;42.80;;;;;;;15.48;85.07;101731.03;5022897;28;20042;-78
2021/09/18 06:41:39;;;;;;;73.88;43.13;;;;;;;15.69;84.36;101739.69;5026832;28;20101;-78
2021/09/18 06:44:05;;;;;;;70.03;42.55;;;;;;;15.85;83.78;101739.00;4994614;28;20045;-78
2021/09/18 06:46:30;;;;;;;71.63;40.88;;;;;;;15.90;84.13;101734.34;5010642;28;20035;-78
2021/09/18 06:48:56;;;;;;;65.40;40.42;;;;;;;16.16;83.04;101734.84;5010142;28;20030;-78
2021/09/18 06:51:21;;;;;;;66.38;40.85;;;;;;;16.52;82.27;101734.78;4980918;28;20030;-78
2021/09/18 06:53:47;;;;;;;61.75;39.03;;;;;;;16.84;81.08;101742.84;4988351;28;20214;-78
2021/09/18 06:56:12;;;;;;;59.72;37.83;;;;;;;16.58;80.70;101739.72;5011180;28;20068;-78
2021/09/18 06:58:37;;;;;;;63.42;39.53;;;;;;;16.84;80.73;101741.03;5020168;28;20029;-78
2021/09/18 07:01:03;;;;;;;57.65;37.05;;;;;;;16.90;80.13;101745.19;4977576;28;20049;-78
2021/09/18 07:03:28;;;;;;;56.85;37.80;;;;;;;17.05;79.21;101744.34;5005262;28;20353;-78
2021/09/18 07:05:54;;;;;;;56.28;36.47;;;;;;;17.17;79.34;101749.91;5008698;28;20228;-78
2021/09/18 07:08:20;;;;;;;54.60;36.13;;;;;;;17.38;78.64;101751.41;4986984;28;20038;-78
2021/09/18 07:10:46;;;;;;;54.65;35.85;;;;;;;17.40;78.47;101756.63;4992497;28;20299;-78
2021/09/18 07:13:11;;;;;;;55.72;35.17;;;;;;;17.05;78.56;101757.56;4988640;28;20361;-79
2021/09/18 07:15:37;;;;;;;56.00;36.95;;;;;;;17.45;78.37;101754.56;5015833;28;20075;-78
2021/09/18 07:18:02;;;;;;;52.70;34.83;;;;;;;18.48;73.71;101764.63;5017191;28;20132;-78
2021/09/18 07:20:28;;;;;;;52.38;35.13;;;;;;;18.23;74.63;101760.75;5022521;28;20042;-78
2021/09/18 07:22:53;;;;;;;47.85;32.67;;;;;;;18.89;72.56;101761.28;5005028;28;20099;-79
2021/09/18 07:25:18;;;;;;;51.83;35.45;;;;;;;18.27;73.98;101758.78;4987440;28;20045;-78
2021/09/18 07:27:44;;;;;;;48.10;33.65;;;;;;;18.92;72.04;101752.31;4995828;28;20077;-78
2021/09/18 07:30:09;;;;;;;52.53;34.00;;;;;;;18.42;73.57;101757.03;5017781;28;20052;-78
2021/09/18 07:32:35;;;;;;;51.42;33.83;;;;;;;19.11;72.03;101757.31;5018245;28;20121;-78
2021/09/18 07:35:05;;;;;;;47.83;33.85;;;;;;;19.40;71.48;101755.50;5007044;28;20081;-78
2021/09/18 07:37:32;;;;;;;43.90;30.80;;;;;;;19.64;68.46;101750.41;5032438;28;20390;-78
2021/09/18 07:39:57;;;;;;;45.75;32.83;;;;;;;19.84;68.52;101761.59;5012622;28;20057;-78
2021/09/18 07:42:23;;;;;;;48.63;34.78;;;;;;;19.66;68.74;101756.47;4996029;28;20032;-78
2021/09/18 07:44:48;;;;;;;43.22;31.60;;;;;;;20.17;67.79;101763.81;4998584;28;20029;-78
2021/09/18 07:47:14;;;;;;;42.63;32.20;;;;;;;20.96;64.70;101754.03;5014641;28;20100;-78
2021/09/18 07:49:39;;;;;;;47.65;32.70;;;;;;;20.76;64.96;101762.56;5022637;28;20097;-78
2021/09/18 07:52:05;;;;;;;39.83;29.63;;;;;;;21.26;64.54;101771.47;4994662;28;20042;-78
2021/09/18 07:54:31;;;;;;;42.70;32.90;;;;;;;20.56;65.83;101762.09;5010945;28;20024;-77
2021/09/18 07:56:57;;;;;;;40.45;29.48;;;;;;;21.21;66.46;101768.25;5021059;28;20037;-78
2021/09/18 07:59:22;;;;;;;41.70;29.63;;;;;;;21.79;63.05;101771.22;5060020;28;20067;-78
2021/09/18 08:01:48;;;;;;;12.93;10.95;;;;;;;22.40;59.58;101772.00;5022134;28;20026;-78
2021/09/18 08:04:13;;;;;;;44.85;32.65;;;;;;;20.88;65.23;101772.34;5014388;28;20045;-78
2021/09/18 08:06:40;;;;;;;43.88;30.95;;;;;;;21.73;62.71;101780.53;5035747;28;20036;-78
2021/09/18 08:09:06;;;;;;;34.78;26.70;;;;;;;22.23;61.16;101770.59;5026139;28;20112;-78
2021/09/18 08:11:33;;;;;;;40.65;31.50;;;;;;;21.94;61.65;101769.25;4992031;28;20025;-78
2021/09/18 08:13:58;;;;;;;36.05;24.13;;;;;;;22.11;59.51;101776.00;5017816;28;20034;-78
2021/09/18 08:16:24;;;;;;;41.22;30.17;;;;;;;22.31;61.11;101772.72;4986842;28;20026;-78
2021/09/18 08:18:50;;;;;;;41.35;28.02;;;;;;;22.15;59.48;101774.81;5000637;28;20037;-78
2021/09/18 08:21:15;;;;;;;45.40;30.63;;;;;;;21.80;61.64;101776.47;5025122;28;20044;-78
2021/09/18 08:23:41;;;;;;;36.65;27.73;;;;;;;21.97;59.35;101774.38;5032750;28;20035;-77
2021/09/18 08:26:06;;;;;;;43.88;30.73;;;;;;;21.26;62.87;101769.63;5013436;28;20254;-77
2021/09/18 08:28:32;;;;;;;48.53;32.28;;;;;;;21.82;60.85;101763.88;4998271;28;20340;-78
2021/09/18 08:30:57;;;;;;;40.90;29.42;;;;;;;22.27;60.01;101770.41;5002386;28;20113;-77
2021/09/18 08:33:23;;;;;;;50.47;31.23;;;;;;;21.85;61.67;101781.47;4994353;28;20030;-76
2021/09/18 08:35:48;;;;;;;39.83;29.10;;;;;;;22.43;59.01;101777.13;4991070;28;20081;-76
2021/09/18 08:38:14;;;;;;;42.25;28.15;;;;;;;22.47;57.25;101774.22;5007631;28;20084;-76
2021/09/18 08:40:39;;;;;;;33.75;21.95;;;;;;;23.31;54.51;101769.47;5014726;28;20021;-77
2021/09/18 08:43:05;;;;;;;34.47;27.95;;;;;;;22.28;57.71;101778.28;4998140;28;20225;-77
2021/09/18 08:45:31;;;;;;;33.38;26.10;;;;;;;22.74;56.81;101769.44;5019390;28;20029;-77
2021/09/18 08:47:58;;;;;;;37.20;25.67;;;;;;;23.49;53.98;101773.34;5001859;28;20066;-77
2021/09/18 08:50:23;;;;;;;29.42;23.88;;;;;;;24.67;51.21;101773.41;4988170;28;20093;-76
2021/09/18 08:52:49;;;;;;;33.53;24.50;;;;;;;23.24;53.41;101771.78;5019746;28;20201;-77
2021/09/18 08:55:14;;;;;;;29.70;24.67;;;;;;;22.71;54.80;101783.00;5010281;28;20049;-77
2021/09/18 08:57:40;;;;;;;28.15;20.83;;;;;;;23.41;53.23;101775.75;4993762;28;20030;-77
2021/09/18 09:00:07;;;;;;;29.40;22.17;;;;;;;24.02;52.83;101777.13;5003171;28;20042;-77
2021/09/18 09:02:33;;;;;;;28.20;21.27;;;;;;;22.50;55.57;101780.16;5007570;28;20036;-77
2021/09/18 09:05:17;;;;;;;24.30;18.02;;;;;;;22.77;54.33;101784.34;5014047;28;20391;-77
2021/09/18 09:07:42;;;;;;;32.08;25.15;;;;;;;22.66;55.56;101776.31;5007272;28;20033;-76
2021/09/18 09:10:08;;;;;;;33.67;23.52;;;;;;;22.40;56.85;101776.50;4991500;28;20405;-76
2021/09/18 09:12:35;;;;;;;23.17;17.52;;;;;;;22.58;55.30;101779.59;5028477;28;20032;-76
2021/09/18 09:15:05;;;;;;;34.05;23.92;;;;;;;22.35;55.87;101786.69;4987636;28;20026;-77
2021/09/18 09:17:32;;;;;;;28.65;23.55;;;;;;;21.93;56.86;101787.06;5009014;28;20026;-77
2021/09/18 09:19:58;;;;;;;31.15;22.65;;;;;;;22.16;56.90;101781.84;5003293;28;20121;-76
2021/09/18 09:22:38;;;;;;;25.63;22.30;;;;;;;22.22;57.27;101776.88;5036649;28;20037;-77
2021/09/18 09:25:05;;;;;;;28.27;22.67;;;;;;;23.03;55.88;101778.78;5023284;28;20056;-76
2021/09/18 09:27:30;;;;;;;34.08;21.52;;;;;;;23.62;53.90;101780.38;5000996;28;20025;-76
2021/09/18 09:29:57;;;;;;;28.50;22.45;;;;;;;22.30;56.39;101787.00;5022619;28;20111;-76
2021/09/18 09:32:37;;;;;;;26.17;21.77;;;;;;;22.96;55.03;101784.63;5039251;28;20061;-76
2021/09/18 09:35:04;;;;;;;20.17;15.35;;;;;;;22.73;55.48;101774.88;5022862;28;20044;-77
2021/09/18 09:37:29;;;;;;;30.25;21.30;;;;;;;23.05;55.04;101782.22;5021983;28;20025;-77
2021/09/18 09:39:59;;;;;;;31.75;20.52;;;;;;;23.57;52.73;101783.41;5004314;28;20040;-76
2021/09/18 09:42:26;;;;;;;26.33;20.40;;;;;;;25.09;49.82;101789.41;5014588;28;20033;-77
2021/09/18 09:44:53;;;;;;;25.38;20.50;;;;;;;24.89;48.93;101780.41;5033738;28;20041;-76
2021/09/18 09:47:22;;;;;;;25.92;20.25;;;;;;;25.02;50.14;101790.91;5011979;28;20022;-77
2021/09/18 09:49:54;;;;;;;23.45;19.42;;;;;;;24.89;49.79;101788.47;5015180;28;20053;-76
2021/09/18 09:52:24;;;;;;;22.75;19.90;;;;;;;25.05;50.19;101790.66;4993956;28;20331;-77
2021/09/18 09:54:51;;;;;;;27.60;20.13;;;;;;;24.13;51.20;101791.28;5012112;28;20041;-77
2021/09/18 09:57:16;;;;;;;24.02;19.48;;;;;;;25.67;47.00;101790.63;5012183;28;20036;-77
2021/09/18 09:59:42;;;;;;;22.23;19.15;;;;;;;25.72;47.00;101795.53;5012618;28;20029;-76
2021/09/18 10:02:09;;;;;;;27.90;20.88;;;;;;;25.09;48.41;101793.91;5026644;28;20038;-77
2021/09/18 10:04:35;;;;;;;22.58;19.50;;;;;;;26.27;46.71;101789.66;5025580;28;20033;-77
2021/09/18 10:07:00;;;;;;;23.30;18.10;;;;;;;26.07;44.97;101795.06;4991494;28;20096;-77
2021/09/18 10:09:26;;;;;;;17.85;16.10;;;;;;;26.43;44.34;101789.94;5005946;28;20206;-78
2021/09/18 10:11:53;;;;;;;20.30;18.20;;;;;;;27.74;42.27;101789.06;4994628;28;20076;-77
2021/09/18 10:14:26;;;;;;;23.23;20.00;;;;;;;26.14;46.39;101790.84;5005287;28;20033;-77
2021/09/18 10:16:56;;;;;;;12.15;11.05;;;;;;;28.48;41.52;101780.81;5000999;28;20112;-77
2021/09/18 10:24:51;;;;;;;26.00;21.30;;;;;;;25.09;48.50;101776.00;4996896;28;20603;-77
2021/09/18 10:27:24;;;;;;;21.65;18.60;;;;;;;25.34;47.12;101776.56;5004279;28;20041;-77
2021/09/18 10:29:50;;;;;;;19.17;17.27;;;;;;;24.92;46.79;101784.66;5006297;28;20036;-77
2021/09/18 10:32:16;;;;;;;23.13;19.35;;;;;;;24.55;48.27;101782.47;5010224;28;20064;-76
2021/09/18 10:34:41;;;;;;;23.63;20.63;;;;;;;25.29;46.94;101779.63;5023683;28;20320;-77
2021/09/18 10:37:07;;;;;;;22.52;20.08;;;;;;;26.36;45.31;101778.06;4996483;28;20356;-77
2021/09/18 10:39:32;;;;;;;21.73;18.90;;;;;;;25.78;45.71;101776.22;4986134;28;20041;-77
2021/09/18 10:41:59;;;;;;;15.50;13.85;;;;;;;26.07;45.25;101775.41;5003677;28;20022;-76
2021/09/18 10:44:45;;;;;;;21.08;17.70;;;;;;;25.69;45.10;101777.91;4990843;28;20321;-76
2021/09/18 10:47:10;;;;;;;19.65;15.38;;;;;;;26.31;44.95;101775.84;5011875;28;20042;-77
2021/09/18 10:49:39;;;;;;;22.95;19.88;;;;;;;25.81;45.96;101768.75;4996906;28;20029;-77
2021/09/18 10:52:17;;;;;;;25.48;20.98;;;;;;;26.10;46.41;101773.28;4991485;28;20026;-76
2021/09/18 10:55:01;;;;;;;16.50;14.55;;;;;;;25.56;41.93;101770.13;5022028;28;20037;-77
2021/09/18 10:57:50;;;;;;;16.05;7.85;;;;;;;26.39;42.50;101765.22;5004468;28;20041;-77
2021/09/18 11:00:19;;;;;;;12.75;11.25;;;;;;;24.86;44.17;101769.13;5003465;28;20249;-76
2021/09/18 11:02:50;;;;;;;;;;;;;;;26.38;42.55;101763.53;5015895;28;20038;-77
2021/09/18 11:05:28;;;;;;;7.88;7.25;;;;;;;25.38;42.23;101763.72;5012633;28;19909;-77
2021/09/18 11:08:23;;;;;;;8.60;7.88;;;;;;;26.30;42.31;101766.06;5030215;28;20042;-77
2021/09/18 11:10:50;;;;;;;8.40;7.53;;;;;;;25.67;41.14;101761.09;5020634;28;20060;-76